createdAt,value
2018-04-18T10:46:13.192Z,42.54
2018-04-18T10:47:22.669Z,42.55
2018-04-18T10:48:32.683Z,42.65
2018-04-18T10:49:42.157Z,42.46
2018-04-18T10:50:51.891Z,42.65
2018-04-18T10:52:01.917Z,42.26
2018-04-18T10:53:11.386Z,42.19
2018-04-18T10:54:21.138Z,41.99
2018-04-18T10:55:30.336Z,41.89
2018-04-18T10:56:39.812Z,41.7
2018-04-18T10:57:49.820Z,41.41
2018-04-18T10:58:59.826Z,41.31
2018-04-18T11:00:08.768Z,41.63
2018-04-18T11:01:18.247Z,40.95
2018-04-18T11:02:28.259Z,41.43
2018-04-18T11:03:38.275Z,41.72
2018-04-18T11:04:48.026Z,41.33
2018-04-18T11:05:57.514Z,40.97
2018-04-18T11:07:07.573Z,41.06
2018-04-18T11:08:16.772Z,40.67
2018-04-18T11:09:26.777Z,41.16
2018-04-18T11:10:36.514Z,41.06
2018-04-18T11:11:46.522Z,39.53
2018-04-18T11:12:56.282Z,40.31
2018-04-18T11:14:05.785Z,39.24
2018-04-18T11:15:15.796Z,39.43
2018-04-18T11:16:25.283Z,39.62
2018-04-18T11:17:35.027Z,39.43
2018-04-18T11:18:45.177Z,39.34
2018-04-18T11:19:55.240Z,38.75
2018-04-18T11:21:05.246Z,38.48
2018-04-18T11:22:15.004Z,39.45
2018-04-18T11:23:24.489Z,39.84
2018-04-18T11:24:34.509Z,39.55
2018-04-18T11:25:44.515Z,38.01
2018-04-18T11:26:54.579Z,38.21
2018-04-18T11:28:04.235Z,39.18
2018-04-18T11:29:13.704Z,39.18
2018-04-18T11:30:23.435Z,38.4
2018-04-18T11:31:33.186Z,37.34
2018-04-18T11:32:43.184Z,37.34
2018-04-18T11:33:52.924Z,37.34
2018-04-18T11:35:02.683Z,36.85
2018-04-18T11:36:12.748Z,36.57
2018-04-18T11:37:22.479Z,36.08
2018-04-18T11:38:31.687Z,36.28
2018-04-18T11:39:40.922Z,36.08
2018-04-18T11:40:51.055Z,35.6
2018-04-18T11:42:00.804Z,36.18
2018-04-18T11:43:10.276Z,36.4
2018-04-18T11:44:20.024Z,36.4
2018-04-18T11:45:30.069Z,35.13
2018-04-18T11:46:39.668Z,34.64
2018-04-18T11:47:49.671Z,34.84
2018-04-18T11:48:59.414Z,34.66
2018-04-18T11:50:08.879Z,35.13
2018-04-18T11:51:18.625Z,35.15
2018-04-18T11:52:28.429Z,33.98
2018-04-18T11:53:38.436Z,33.2
2018-04-18T11:54:47.644Z,33.2
2018-04-18T11:55:57.657Z,32.43
2018-04-18T11:57:07.399Z,31.66
2018-04-18T11:58:17.150Z,30.19
2018-04-18T11:59:27.150Z,29.61
2018-04-18T12:00:36.895Z,29.91
2018-04-18T12:01:46.644Z,28.44
2018-04-18T12:02:56.639Z,29.03
2018-04-18T12:04:05.880Z,29.42
2018-04-18T12:05:15.768Z,30
2018-04-18T12:06:25.517Z,30.68
2018-04-18T12:07:34.990Z,32.05
2018-04-18T12:08:44.470Z,32.16
2018-04-18T12:09:53.955Z,32.06
2018-04-18T12:11:03.710Z,30.99
2018-04-18T12:12:13.459Z,29.82
2018-04-18T12:13:22.947Z,28.96
2018-04-18T12:14:32.693Z,28.67
2018-04-18T12:15:41.639Z,28.65
2018-04-18T12:16:51.394Z,28.08
2018-04-18T12:18:01.130Z,28.18
2018-04-18T12:19:11.135Z,28.94
2018-04-18T12:20:20.887Z,28.86
2018-04-18T12:21:30.908Z,29.35
2018-04-18T12:22:40.915Z,29.54
2018-04-18T12:23:50.921Z,29.83
2018-04-18T12:25:00.934Z,29.93
2018-04-18T12:26:10.420Z,29.54
2018-04-18T12:27:20.427Z,29.74
2018-04-18T12:28:30.163Z,30.22
2018-04-18T12:29:39.633Z,30.54
2018-04-18T12:30:49.115Z,31.02
2018-04-18T12:31:58.590Z,27.8
2018-04-18T12:33:08.335Z,27.31
2018-04-18T12:34:17.571Z,27.98
2018-04-18T12:35:27.321Z,28.57
2018-04-18T12:36:37.074Z,29.54
2018-04-18T12:37:46.811Z,30.24
2018-04-18T12:38:56.564Z,30.63
2018-04-18T12:40:06.049Z,28.19
2018-04-18T12:41:16.059Z,28.19
2018-04-18T12:42:26.053Z,28.19
2018-04-18T12:43:36.050Z,28.19
2018-04-18T12:44:45.532Z,29.86
2018-04-18T12:45:54.735Z,30.35
2018-04-18T12:47:04.484Z,28.89
2018-04-18T12:48:14.502Z,28.5
2018-04-18T12:49:23.979Z,28.01
2018-04-18T12:50:33.728Z,27.64
2018-04-18T12:51:43.465Z,27.42
2018-04-18T12:52:53.214Z,27.54
2018-04-18T12:54:02.424Z,28.13
2018-04-18T12:55:12.162Z,27.25
2018-04-18T12:56:21.909Z,26.76
2018-04-18T12:57:32.016Z,27.44
2018-04-18T12:58:41.636Z,27.64
2018-04-18T12:59:51.634Z,26.77
2018-04-18T13:01:01.377Z,25.89
2018-04-18T13:02:10.331Z,25.99
2018-04-18T13:03:20.075Z,26.67
2018-04-18T13:04:29.828Z,26.09
2018-04-18T13:05:39.576Z,25.99
2018-04-18T13:06:49.574Z,25.99
2018-04-18T13:07:59.307Z,26.09
2018-04-18T13:09:08.529Z,26
2018-04-18T13:10:18.270Z,26.1
2018-04-18T13:11:28.007Z,25.9
2018-04-18T13:12:38.030Z,26
2018-04-18T13:13:48.043Z,26.11
2018-04-18T13:14:57.777Z,25.23
2018-04-18T13:16:07.803Z,26.12
2018-04-18T13:17:17.284Z,26.22
2018-04-18T13:18:27.296Z,26.12
2018-04-18T13:19:36.508Z,26.81
2018-04-18T13:20:45.989Z,25.44
2018-04-18T13:21:55.741Z,26.22
2018-04-18T13:23:05.483Z,25.24
2018-04-18T13:24:15.241Z,25.16
2018-04-18T13:25:24.845Z,25.94
2018-04-18T13:26:34.200Z,25.85
2018-04-18T13:27:43.946Z,26.15
2018-04-18T13:28:53.676Z,26.44
2018-04-18T13:30:03.415Z,25.95
2018-04-18T13:31:13.152Z,25.95
2018-04-18T13:32:22.635Z,23.9
2018-04-18T13:33:32.660Z,23.02
2018-04-18T13:34:42.152Z,21.35
2018-04-18T13:35:52.169Z,22.51
2018-04-18T13:37:02.189Z,22.61
2018-04-18T13:38:11.658Z,23.79
2018-04-18T13:39:21.403Z,24.76
2018-04-18T13:40:31.158Z,25.45
2018-04-18T13:41:40.901Z,25.65
2018-04-18T13:42:50.651Z,25.35
2018-04-18T13:44:00.647Z,25.46
2018-04-18T13:45:10.403Z,25.76
2018-04-18T13:46:20.146Z,25.56
2018-04-18T13:47:29.624Z,24.77
2018-04-18T13:48:39.646Z,24.2
2018-04-18T13:49:49.126Z,24.19
2018-04-18T13:50:58.874Z,23.99
2018-04-18T13:52:08.617Z,24.01
2018-04-18T13:53:18.100Z,24.69
2018-04-18T13:54:28.125Z,24.79
2018-04-18T13:55:37.855Z,23.32
2018-04-18T13:56:47.338Z,24.3
2018-04-18T13:57:56.821Z,24.49
2018-04-18T13:59:06.299Z,24.4
2018-04-18T14:00:15.517Z,24.79
2018-04-18T14:01:25.528Z,24.51
2018-04-18T14:02:34.999Z,24.51
2018-04-18T14:03:44.476Z,24.41
2018-04-18T14:04:54.478Z,23.82
2018-04-18T14:06:04.224Z,24.7
2018-04-18T14:07:14.239Z,24.51
2018-04-18T14:08:24.243Z,24.52
2018-04-18T14:09:33.983Z,24.52
2018-04-18T14:10:43.990Z,24.62
2018-04-18T14:11:53.765Z,24.13
2018-04-18T14:13:03.776Z,24.62
2018-04-18T14:14:13.273Z,24.22
2018-04-18T14:15:23.384Z,24.03
2018-04-18T14:16:33.400Z,24.63
2018-04-18T14:17:43.137Z,25.42
2018-04-18T14:18:53.156Z,24.82
2018-04-18T14:20:02.635Z,24.43
2018-04-18T14:21:12.690Z,23.65
2018-04-18T14:22:22.438Z,23.45
2018-04-18T14:23:32.455Z,22.67
2018-04-18T14:24:42.487Z,22.56
2018-04-18T14:25:51.431Z,22.67
2018-04-18T14:27:01.352Z,22.47
2018-04-18T14:28:11.383Z,22.67
2018-04-18T14:29:21.265Z,23.36
2018-04-18T14:30:31.296Z,22.58
2018-04-18T14:31:41.320Z,22.48
2018-04-18T14:32:51.350Z,22.77
2018-04-18T14:34:01.391Z,22.58
2018-04-18T14:35:10.890Z,22.77
2018-04-18T14:36:20.195Z,23.07
2018-04-18T14:37:30.224Z,23.07
2018-04-18T14:38:39.703Z,22.09
2018-04-18T14:39:49.741Z,21.69
2018-04-18T14:40:59.231Z,21.3
2018-04-18T14:42:08.986Z,22.58
2018-04-18T14:43:19.006Z,23.17
2018-04-18T14:44:28.491Z,23.56
2018-04-18T14:45:38.254Z,22.97
2018-04-18T14:46:48.008Z,22.88
2018-04-18T14:47:57.797Z,22.58
2018-04-18T14:49:07.570Z,22.49
2018-04-18T14:50:17.374Z,22.49
2018-04-18T14:51:26.988Z,21.8
2018-04-18T14:52:37.013Z,21.51
2018-04-18T14:53:46.501Z,20.62
2018-04-18T14:54:56.256Z,20.91
2018-04-18T14:56:05.471Z,20.81
2018-04-18T14:57:14.977Z,21.01
2018-04-18T14:58:24.465Z,21.2
2018-04-18T14:59:33.959Z,21.69
2018-04-18T15:00:43.179Z,21.2
2018-04-18T15:01:52.963Z,22.09
2018-04-18T15:03:02.459Z,22.3
2018-04-18T15:04:12.019Z,21.8
2018-04-18T15:05:21.774Z,21.41
2018-04-18T15:06:31.515Z,21.31
2018-04-18T15:07:41.539Z,21.31
2018-04-18T15:08:51.286Z,21.12
2018-04-18T15:10:01.324Z,20.33
2018-04-18T15:11:11.345Z,20.33
2018-04-18T15:12:20.566Z,21.03
2018-04-18T15:13:30.596Z,21.12
2018-04-18T15:14:40.346Z,20.83
2018-04-18T15:15:50.541Z,19.85
2018-04-18T15:17:00.728Z,19.75
2018-04-18T15:18:09.944Z,19.75
2018-04-18T15:19:19.439Z,19.56
2018-04-18T15:20:29.192Z,20.34
2018-04-18T15:21:39.275Z,20.83
2018-04-18T15:22:49.568Z,20.93
2018-04-18T15:23:59.053Z,21.12
2018-04-18T15:25:09.076Z,21.52
2018-04-18T15:26:18.549Z,21.04
2018-04-18T15:27:28.308Z,21.52
2018-04-18T15:28:38.117Z,19.86
2018-04-18T15:29:47.615Z,19.37
2018-04-18T15:30:57.644Z,20.34
2018-04-18T15:32:07.228Z,20.54
2018-04-18T15:33:17.451Z,19.85
2018-04-18T15:34:27.464Z,19.95
2018-04-18T15:35:37.501Z,20.44
2018-04-18T15:36:46.995Z,19.75
2018-04-18T15:37:56.744Z,19.75
2018-04-18T15:39:06.774Z,19.65
2018-04-18T15:40:16.532Z,19.65
2018-04-18T15:41:26.014Z,19.65
2018-04-18T15:42:35.503Z,19.75
2018-04-18T15:43:44.732Z,19.56
2018-04-18T15:44:54.749Z,20.14
2018-04-18T15:46:04.501Z,19.85
2018-04-18T15:47:13.977Z,21.12
2018-04-18T15:48:23.776Z,20.83
2018-04-18T15:49:33.811Z,20.93
2018-04-18T15:50:43.285Z,19.95
2018-04-18T15:51:52.785Z,19.26
2018-04-18T15:53:02.555Z,20.44
2018-04-18T15:54:12.334Z,19.95
2018-04-18T15:55:22.078Z,19.56
2018-04-18T15:56:31.823Z,19.75
2018-04-18T15:57:41.559Z,20.64
2018-04-18T15:58:51.604Z,20.83
2018-04-18T16:00:01.342Z,20.93
2018-04-18T16:01:11.212Z,20.44
2018-04-18T16:02:21.033Z,20.34
2018-04-18T16:03:31.044Z,20.24
2018-04-18T16:04:40.786Z,19.56
2018-04-18T16:05:50.271Z,19.85
2018-04-18T16:06:59.760Z,19.64
2018-04-18T16:08:09.499Z,19.46
2018-04-18T16:09:19.519Z,19.54
2018-04-18T16:10:28.994Z,20.33
2018-04-18T16:11:38.999Z,20.62
2018-04-18T16:12:49.017Z,20.53
2018-04-18T16:13:58.226Z,20.33
2018-04-18T16:15:07.443Z,19.54
2018-04-18T16:16:16.984Z,19.45
2018-04-18T16:17:27.002Z,18.96
2018-04-18T16:18:36.746Z,18.75
2018-04-18T16:19:46.762Z,19.24
2018-04-18T16:20:56.784Z,19.54
2018-04-18T16:22:05.737Z,19.44
2018-04-18T16:23:15.752Z,19.04
2018-04-18T16:24:24.965Z,18.65
2018-04-18T16:25:35.062Z,18.94
2018-04-18T16:26:44.299Z,18.75
2018-04-18T16:27:54.039Z,18.74
2018-04-18T16:29:04.045Z,18.74
2018-04-18T16:30:14.056Z,18.74
2018-04-18T16:31:23.790Z,18.64
2018-04-18T16:32:33.609Z,18.64
2018-04-18T16:33:43.400Z,19.04
2018-04-18T16:34:52.874Z,19.23
2018-04-18T16:36:02.882Z,19.51
2018-04-18T16:37:12.625Z,19.32
2018-04-18T16:38:22.362Z,19.32
2018-04-18T16:39:32.386Z,19.71
2018-04-18T16:40:43.617Z,19.71
2018-04-18T16:41:53.363Z,19.81
2018-04-18T16:43:03.370Z,19.9
2018-04-18T16:44:12.859Z,19.51
2018-04-18T16:45:22.339Z,20.19
2018-04-18T16:46:32.350Z,19.9
2018-04-18T16:47:42.371Z,19.9
2018-04-18T16:48:52.378Z,19.8
2018-04-18T16:50:01.852Z,20.59
2018-04-18T16:51:11.068Z,20.57
2018-04-18T16:52:20.816Z,21.47
2018-04-18T16:53:30.307Z,21.85
2018-04-18T16:54:40.333Z,22.63
2018-04-18T16:55:49.806Z,22.53
2018-04-18T16:56:59.631Z,23.22
2018-04-18T16:58:10.016Z,23.5
2018-04-18T16:59:19.504Z,23.5
2018-04-18T17:00:29.273Z,23.41
2018-04-18T17:01:39.273Z,24.48
2018-04-18T17:02:49.011Z,24.47
2018-04-18T17:03:58.756Z,24.47
2018-04-18T17:05:07.973Z,24.37
2018-04-18T17:06:17.750Z,24.85
2018-04-18T17:07:27.247Z,24.85
2018-04-18T17:08:37.274Z,24.85
2018-04-18T17:09:47.016Z,25.15
2018-04-18T17:10:56.778Z,25.34
2018-04-18T17:12:06.562Z,25.23
2018-04-18T17:13:16.613Z,25.52
2018-04-18T17:14:26.356Z,25.72
2018-04-18T17:15:35.566Z,25.82
2018-04-18T17:16:45.578Z,25.92
2018-04-18T17:17:55.591Z,26.39
2018-04-18T17:19:05.394Z,26.1
2018-04-18T17:20:15.471Z,26.18
2018-04-18T17:21:25.223Z,26.57
2018-04-18T17:22:35.386Z,27.06
2018-04-18T17:23:45.400Z,27.44
2018-04-18T17:24:55.151Z,27.25
2018-04-18T17:26:04.899Z,27.72
2018-04-18T17:27:14.911Z,27.62
2018-04-18T17:28:24.663Z,28.11
2018-04-18T17:29:34.403Z,28.29
2018-04-18T17:30:43.887Z,28.77
2018-04-18T17:31:53.900Z,28.67
2018-04-18T17:33:03.379Z,29.04
2018-04-18T17:34:13.146Z,29.43
2018-04-18T17:35:23.162Z,29.92
2018-04-18T17:36:32.906Z,30.31
2018-04-18T17:37:42.399Z,30.39
2018-04-18T17:38:51.877Z,30.39
2018-04-18T17:40:01.367Z,30.78
2018-04-18T17:41:11.409Z,31.07
2018-04-18T17:42:21.145Z,31.37
2018-04-18T17:43:30.371Z,31.17
2018-04-18T17:44:39.871Z,31.45
2018-04-18T17:45:49.617Z,31.64
2018-04-18T17:46:59.358Z,31.35
2018-04-18T17:48:09.390Z,31.74
2018-04-18T17:49:19.405Z,31.82
2018-04-18T17:50:28.877Z,32.13
2018-04-18T17:51:38.891Z,31.82
2018-04-18T17:52:48.925Z,32.31
2018-04-18T17:53:58.934Z,32.49
2018-04-18T17:55:08.691Z,32.68
2018-04-18T17:56:18.449Z,32.87
2018-04-18T17:57:28.233Z,33.07
2018-04-18T17:58:37.826Z,33.25
2018-04-18T17:59:47.663Z,33.25
2018-04-18T18:00:57.787Z,34.22
2018-04-18T18:02:07.552Z,34.03
2018-04-18T18:03:17.295Z,34.2
2018-04-18T18:04:27.083Z,34.11
2018-04-18T18:05:37.125Z,34.5
2018-04-18T18:06:47.188Z,34.77
2018-04-18T18:07:57.196Z,35.06
2018-04-18T18:09:05.877Z,35.06
2018-04-18T18:10:15.668Z,35.25
2018-04-18T18:11:25.414Z,35.33
2018-04-18T18:12:35.157Z,35.33
2018-04-18T18:13:44.891Z,35.92
2018-04-18T18:14:54.911Z,36.1
2018-04-18T18:16:04.392Z,36.1
2018-04-18T18:17:14.461Z,36.29
2018-04-18T18:18:24.205Z,36.1
2018-04-18T18:19:33.721Z,36.56
2018-04-18T18:20:43.736Z,36.66
2018-04-18T18:21:53.744Z,37.24
2018-04-18T18:23:03.230Z,37.05
2018-04-18T18:24:13.258Z,37.41
2018-04-18T18:25:23.062Z,38.09
2018-04-18T18:26:32.535Z,38.29
2018-04-18T18:27:42.282Z,38.48
2018-04-18T18:28:52.037Z,38.48
2018-04-18T18:30:01.600Z,39.16
2018-04-18T18:31:11.086Z,39.34
2018-04-18T18:32:21.104Z,39.43
2018-04-18T18:33:31.115Z,39.62
2018-04-18T18:34:40.865Z,39.62
2018-04-18T18:35:50.617Z,39.61
2018-04-18T18:37:00.361Z,40.58
2018-04-18T18:38:10.149Z,40.86
2018-04-18T18:39:19.891Z,40.48
2018-04-18T18:40:29.361Z,40.86
2018-04-18T18:41:39.111Z,40.96
2018-04-18T18:42:48.576Z,41.24
2018-04-18T18:43:58.318Z,41.42
2018-04-18T18:45:08.065Z,41.62
2018-04-18T18:46:17.579Z,41.91
2018-04-18T18:47:27.335Z,42
2018-04-18T18:48:37.344Z,41.99
2018-04-18T18:49:46.676Z,42.47
2018-04-18T18:50:56.498Z,42.57
2018-04-18T18:52:05.970Z,42.66
2018-04-18T18:53:15.976Z,42.86
2018-04-18T18:54:25.718Z,43.24
2018-04-18T18:55:35.456Z,43.51
2018-04-18T18:56:44.662Z,43.41
2018-04-18T18:57:54.412Z,43.71
2018-04-18T18:59:04.151Z,44.09
2018-04-18T19:00:13.941Z,44.29
2018-04-18T19:01:24.003Z,44.57
2018-04-18T19:02:33.216Z,45.04
2018-04-18T19:03:42.970Z,45.16
2018-04-18T19:04:52.708Z,45.14
2018-04-18T19:06:02.186Z,44.75
2018-04-18T19:07:11.670Z,45.23
2018-04-18T19:08:21.136Z,45.42
2018-04-18T19:09:30.606Z,45.81
2018-04-18T19:10:39.296Z,46
2018-04-18T19:11:48.771Z,46.56
2018-04-18T19:12:58.510Z,46.85
2018-04-18T19:14:08.517Z,46.56
2018-04-18T19:15:18.255Z,46.95
2018-04-18T19:16:27.723Z,46.95
2018-04-18T19:17:36.660Z,46.85
2018-04-18T19:18:46.407Z,47.33
2018-04-18T19:19:55.350Z,47.63
2018-04-18T19:21:05.113Z,47.91
2018-04-18T19:22:14.856Z,47.24
2018-04-18T19:23:24.373Z,47.5
2018-04-18T19:24:34.138Z,47.41
2018-04-18T19:25:43.399Z,47.89
2018-04-18T19:26:52.868Z,48.18
2018-04-18T19:28:02.351Z,47.89
2018-04-18T19:29:12.092Z,48.66
2018-04-18T19:30:22.105Z,48.47
2018-04-18T19:31:32.138Z,48.95
2018-04-18T19:32:41.877Z,48.66
2018-04-18T19:33:51.617Z,48.57
2018-04-18T19:35:01.347Z,48.86
2018-04-18T19:36:10.877Z,49.82
2018-04-18T19:37:20.883Z,49.73
2018-04-18T19:38:30.357Z,49.6
2018-04-18T19:39:40.467Z,49.6
2018-04-18T19:40:50.559Z,49.7
2018-04-18T19:42:00.300Z,49.51
2018-04-18T19:43:09.786Z,49.99
2018-04-18T19:44:19.790Z,49.9
2018-04-18T19:45:29.254Z,50.28
2018-04-18T19:46:39.032Z,50.67
2018-04-18T19:47:48.509Z,50.67
2018-04-18T19:48:58.044Z,50.38
2018-04-18T19:50:07.802Z,50.57
2018-04-18T19:51:17.296Z,50.57
2018-04-18T19:52:27.341Z,50.45
2018-04-18T19:53:37.115Z,50.84
2018-04-18T19:54:46.635Z,50.84
2018-04-18T19:55:56.424Z,50.93
2018-04-18T19:57:06.277Z,51.22
2018-04-18T19:58:15.879Z,51.12
2018-04-18T19:59:25.386Z,50.93
2018-04-18T20:00:34.639Z,51.22
2018-04-18T20:01:44.417Z,51.22
2018-04-18T20:02:53.353Z,51.32
2018-04-18T20:04:02.827Z,50.93
2018-04-18T20:05:12.642Z,51.29
2018-04-18T20:06:22.326Z,51.32
2018-04-18T20:07:32.367Z,51.89
2018-04-18T20:08:42.361Z,51.87
2018-04-18T20:09:51.592Z,51.87
2018-04-18T20:11:01.444Z,52.06
2018-04-18T20:12:11.386Z,52.25
2018-04-18T20:13:21.407Z,51.87
2018-04-18T20:14:31.455Z,52.45
2018-04-18T20:15:40.686Z,52.55
2018-04-18T20:16:50.779Z,52.55
2018-04-18T20:18:00.896Z,52.35
2018-04-18T20:19:10.377Z,52.73
2018-04-18T20:20:20.390Z,53.03
2018-04-18T20:21:29.872Z,52.61
2018-04-18T20:22:39.402Z,53.13
2018-04-18T20:23:49.186Z,53.19
2018-04-18T20:24:58.955Z,53.19
2018-04-18T20:26:08.690Z,53
2018-04-18T20:27:18.691Z,53.19
2018-04-18T20:28:28.553Z,53.48
2018-04-18T20:29:38.618Z,53.77
2018-04-18T20:30:48.386Z,53.77
2018-04-18T20:31:58.129Z,54.16
2018-04-18T20:33:08.220Z,54.25
2018-04-18T20:34:17.973Z,53.87
2018-04-18T20:35:27.778Z,54.16
2018-04-18T20:36:37.542Z,54.25
2018-04-18T20:37:47.378Z,54.74
2018-04-18T20:38:56.335Z,54.44
2018-04-18T20:40:05.822Z,55.02
2018-04-18T20:41:15.629Z,54.93
2018-04-18T20:42:25.439Z,54.74
2018-04-18T20:43:35.459Z,55.29
2018-04-18T20:44:45.536Z,55.48
2018-04-18T20:45:55.632Z,55.87
2018-04-18T20:47:04.865Z,55.87
2018-04-18T20:48:14.094Z,55.57
2018-04-18T20:49:23.873Z,55.51
2018-04-18T20:50:33.457Z,55.96
2018-04-18T20:51:43.346Z,56.25
2018-04-18T20:52:53.469Z,56.44
2018-04-18T20:54:02.690Z,56.44
2018-04-18T20:55:12.496Z,56.35
2018-04-18T20:56:22.256Z,56.63
2018-04-18T20:57:31.731Z,56.44
2018-04-18T20:58:41.203Z,56.73
2018-04-18T20:59:50.953Z,56.73
2018-04-18T21:01:00.444Z,56.82
2018-04-18T21:02:10.193Z,56.73
2018-04-18T21:03:19.944Z,56.92
2018-04-18T21:04:29.690Z,57.12
2018-04-18T21:05:39.210Z,57.69
2018-04-18T21:06:48.691Z,57.89
2018-04-18T21:07:58.174Z,58.56
2018-04-18T21:09:08.228Z,57.67
2018-04-18T21:10:17.443Z,57.89
2018-04-18T21:11:26.914Z,57.89
2018-04-18T21:12:36.645Z,57.98
2018-04-18T21:13:45.607Z,58.15
2018-04-18T21:14:58.101Z,58.05
2018-04-18T21:16:07.651Z,58.63
2018-04-18T21:17:17.416Z,58.92
2018-04-18T21:18:26.928Z,59.97
2018-04-18T21:19:36.668Z,60.07
2018-04-18T21:20:46.456Z,59.3
2018-04-18T21:21:56.234Z,59.97
2018-04-18T21:23:06.429Z,59.59
2018-04-18T21:24:16.024Z,60.17
2018-04-18T21:25:25.562Z,60.46
2018-04-18T21:26:35.283Z,59.97
2018-04-18T21:27:45.728Z,60.84
2018-04-18T21:28:55.946Z,61.13
2018-04-18T21:30:05.860Z,61.52
2018-04-18T21:31:15.852Z,61.49
2018-04-18T21:32:25.994Z,61.58
2018-04-18T21:33:35.565Z,61.39
2018-04-18T21:34:45.372Z,61.1
2018-04-18T21:35:54.845Z,61.19
2018-04-18T21:37:04.320Z,61.97
2018-04-18T21:38:13.868Z,62.16
2018-04-18T21:39:23.684Z,61.97
2018-04-18T21:40:33.704Z,61.97
2018-04-18T21:41:43.209Z,61.87
2018-04-18T21:42:52.950Z,61.68
2018-04-18T21:44:02.422Z,62.06
2018-04-18T21:45:11.941Z,61.97
2018-04-18T21:46:21.462Z,62.35
2018-04-18T21:47:31.472Z,62.26
2018-04-18T21:48:41.235Z,62.71
2018-04-18T21:49:51.236Z,63.51
2018-04-18T21:51:01.296Z,63.38
2018-04-18T21:52:11.164Z,63.95
2018-04-18T21:53:21.360Z,63.79
2018-04-18T21:54:31.302Z,63.67
2018-04-18T21:55:41.208Z,63.95
2018-04-18T21:56:50.694Z,64.05
2018-04-18T21:57:59.915Z,64.34
2018-04-18T21:59:09.711Z,64.73
2018-04-18T22:00:19.412Z,65.5
2018-04-18T22:01:28.965Z,65.5
2018-04-18T22:02:38.751Z,65.78
2018-04-18T22:03:48.510Z,66.07
2018-04-18T22:04:58.018Z,65.59
2018-04-18T22:06:08.037Z,65.4
2018-04-18T22:07:17.807Z,65.69
2018-04-18T22:08:27.309Z,65.88
2018-04-18T22:09:37.337Z,66.36
2018-04-18T22:10:47.342Z,66.23
2018-04-18T22:11:57.088Z,66.04
2018-04-18T22:13:06.888Z,66.71
2018-04-18T22:14:16.631Z,66.61
2018-04-18T22:15:26.126Z,67.1
2018-04-18T22:16:35.613Z,67
2018-04-18T22:17:45.384Z,67.29
2018-04-18T22:18:55.141Z,67.68
2018-04-18T22:20:04.633Z,67.29
2018-04-18T22:21:14.375Z,67.38
2018-04-18T22:22:23.846Z,67.86
2018-04-18T22:23:33.584Z,67.68
2018-04-18T22:24:43.128Z,68.06
2018-04-18T22:25:52.611Z,68.35
2018-04-18T22:27:02.352Z,68.83
2018-04-18T22:28:11.854Z,68.44
2018-04-18T22:29:21.336Z,68.63
2018-04-18T22:30:31.346Z,68.83
2018-04-18T22:31:41.112Z,69.02
2018-04-18T22:32:50.882Z,68.92
2018-04-18T22:34:00.410Z,69.6
2018-04-18T22:35:10.194Z,69.89
2018-04-18T22:36:19.965Z,69.79
2018-04-18T22:37:29.704Z,70.07
2018-04-18T22:38:39.459Z,70.27
2018-04-18T22:39:49.255Z,70.43
2018-04-18T22:40:59.000Z,70.94
2018-04-18T22:42:08.739Z,71.1
2018-04-18T22:43:18.211Z,71.19
2018-04-18T22:44:28.213Z,71.48
2018-04-18T22:45:37.434Z,71.58
2018-04-18T22:46:46.917Z,71.48
2018-04-18T22:47:56.717Z,71.77
2018-04-18T22:49:06.484Z,71.39
2018-04-18T22:50:16.495Z,71.77
2018-04-18T22:51:26.592Z,72.06
2018-04-18T22:52:36.614Z,72.25
2018-04-18T22:53:46.366Z,72.54
2018-04-18T22:54:56.145Z,72.64
2018-04-18T22:56:05.608Z,72.73
2018-04-18T22:57:15.633Z,72.44
2018-04-18T22:58:25.636Z,72.92
2018-04-18T22:59:35.529Z,73.08
2018-04-18T23:00:45.373Z,73.08
2018-04-18T23:01:55.145Z,73.5
2018-04-18T23:03:04.426Z,73.41
2018-04-18T23:04:14.476Z,73.75
2018-04-18T23:05:24.251Z,73.41
2018-04-18T23:06:33.724Z,73.94
2018-04-18T23:07:43.746Z,73.66
2018-04-18T23:08:53.540Z,73.66
2018-04-18T23:10:03.084Z,73.94
2018-04-18T23:11:12.563Z,74.13
2018-04-18T23:12:22.591Z,74.43
2018-04-18T23:13:32.604Z,75.1
2018-04-18T23:14:42.606Z,75.38
2018-04-18T23:15:52.128Z,75
2018-04-18T23:17:01.593Z,74.81
2018-04-18T23:18:11.392Z,74.81
2018-04-18T23:19:21.417Z,75.38
2018-04-18T23:20:31.156Z,75.38
2018-04-18T23:21:40.634Z,75.38
2018-04-18T23:22:50.116Z,75.67
2018-04-18T23:24:00.149Z,76.25
2018-04-18T23:25:09.629Z,76.44
2018-04-18T23:26:19.369Z,76.54
2018-04-18T23:27:29.371Z,76.34
2018-04-18T23:28:39.416Z,75.87
2018-04-18T23:29:49.296Z,76.06
2018-04-18T23:30:59.108Z,75.77
2018-04-18T23:32:08.906Z,75.77
2018-04-18T23:33:18.385Z,75.87
2018-04-18T23:34:28.164Z,75.2
2018-04-18T23:35:37.898Z,75.2
2018-04-18T23:36:47.641Z,75.57
2018-04-18T23:37:56.854Z,75.57
2018-04-18T23:39:06.332Z,75.67
2018-04-18T23:40:16.329Z,75.2
2018-04-18T23:41:26.344Z,75.15
2018-04-18T23:42:36.460Z,75.67
2018-04-18T23:43:46.739Z,75.73
2018-04-18T23:44:56.483Z,75.25
2018-04-18T23:46:05.987Z,75.45
2018-04-18T23:47:15.991Z,75.15
2018-04-18T23:48:26.008Z,75.25
2018-04-18T23:49:35.757Z,74.68
2018-04-18T23:50:45.756Z,73.62
2018-04-18T23:51:55.763Z,73.43
2018-04-18T23:53:04.749Z,73.72
2018-04-18T23:54:14.486Z,73.72
2018-04-18T23:55:24.530Z,73.33
2018-04-18T23:56:34.567Z,73.72
2018-04-18T23:57:44.305Z,73.24
2018-04-18T23:58:54.330Z,73.14
